Frankfort, MI

11:48 PM EST on February 25, 2017 (GMT -0500)
Frankfort

Weather History for KFKS - January, 2013

Change the Weather History Date:

Friday, January 4, 2013

  Actual Average (KMBL) Record (KMBL)
Temperature  
Mean Temperature 28 °F -  
Max Temperature 33 °F 30 °F 48 °F (2007)
Min Temperature 24 °F 17 °F 0 °F (1981)
Degree Days  
Heating Degree Days 36    
Moisture  
Dew Point 22 °F    
Average Humidity 78    
Maximum Humidity 81    
Minimum Humidity 72    
Precipitation  
Precipitation 0.00 in - - ()
Sea Level Pressure  
Sea Level Pressure 29.98 in    
Wind  
Wind Speed 13 mph (West)    
Max Wind Speed 17 mph    
Max Gust Speed 29 mph    
Visibility 10 miles    
Events      
Averages and records for this station are not official NWS values.
T = Trace of Precipitation, MM = Missing Value Source: NWS Daily Summary

Daily Weather History Graph

Daily Weather History Graph

Search for Another Location

Airport or City:

Trip Planner

Search our weather history database for the weather conditions in past years. The results will help you decide how hot, cold, wet, or windy it might be!

Date:

Astronomy

Jan. 04, 2013 Rise Set
Actual Time 8:21 AM EST 5:18 PM EST
Civil Twilight 7:48 AM EST 5:51 PM EST
Nautical Twilight 7:11 AM EST 6:28 PM EST
Astronomical Twilight 6:36 AM EST 7:03 PM EST
Moon 12:09 AM EST (1/4) 11:45 AM EST (1/4)
Length of Visible Light 10h 03m
Length of Day
8h 56m
Waning Gibbous, 55% of the Moon is Illuminated
Jan 4
Waning Gibbous
Jan 4
Last Quarter
Jan 11
New
Jan 18
First Quarter
Jan 26
Full

Hourly Weather History & Observations

Time (EST) Temp. Windchill Dew Point Humidity Pressure Visibility Wind Dir Wind Speed Gust Speed Precip Events Conditions
12:14 AM 27.5 °F 16.3 °F 21.7 °F 79% 30.02 in 10.0 mi WSW 13.8 mph 20.7 mph N/A   Overcast
12:34 AM 27.0 °F 15.6 °F 21.6 °F 80% 30.02 in 10.0 mi WSW 13.8 mph 21.9 mph N/A   Mostly Cloudy
12:54 AM 27.1 °F 15.9 °F 21.6 °F 80% 30.01 in 10.0 mi WSW 13.8 mph 23.0 mph N/A   Mostly Cloudy
1:15 AM 27.1 °F 15.9 °F 21.4 °F 79% 30.00 in 10.0 mi WSW 13.8 mph 26.5 mph N/A   Mostly Cloudy
1:35 AM 27.0 °F 14.7 °F 21.2 °F 79% 29.98 in 10.0 mi WSW 16.1 mph 23.0 mph N/A   Mostly Cloudy
1:55 AM 26.6 °F 14.7 °F 19.9 °F 76% 29.98 in 10.0 mi WSW 15.0 mph 25.3 mph N/A   Scattered Clouds
2:32 AM 26.4 °F 15.0 °F 19.4 °F 75% 29.98 in 10.0 mi WSW 13.8 mph 24.2 mph N/A   Scattered Clouds
2:52 AM 26.6 °F 14.7 °F 19.9 °F 76% 29.97 in 10.0 mi SW 15.0 mph 27.6 mph N/A   Scattered Clouds
3:12 AM 27.0 °F 14.3 °F 19.8 °F 74% 29.97 in 10.0 mi SW 17.3 mph 27.6 mph N/A   Clear
3:35 AM 27.3 °F 16.1 °F 20.5 °F 75% 29.96 in 10.0 mi WSW 13.8 mph 27.6 mph N/A   Scattered Clouds
4:15 AM 26.8 °F 14.1 °F 20.8 °F 78% 29.95 in 10.0 mi SW 17.3 mph 26.5 mph N/A   Scattered Clouds
4:35 AM 26.4 °F 16.0 °F 20.5 °F 78% 29.95 in 10.0 mi SW 11.5 mph 27.6 mph N/A   Scattered Clouds
4:55 AM 26.4 °F 13.6 °F 20.7 °F 79% 29.96 in 10.0 mi WSW 17.3 mph 26.5 mph N/A   Mostly Cloudy
5:15 AM 26.4 °F 14.0 °F 20.5 °F 78% 29.97 in 10.0 mi WSW 16.1 mph 28.8 mph N/A   Overcast
5:35 AM 25.9 °F 13.8 °F 20.3 °F 79% 29.97 in 10.0 mi WSW 15.0 mph 24.2 mph N/A   Overcast
5:55 AM 25.7 °F 13.5 °F 20.3 °F 80% 29.96 in 10.0 mi WSW 15.0 mph 26.5 mph N/A   Overcast
6:16 AM 25.7 °F 13.5 °F 20.3 °F 80% 29.96 in 10.0 mi WSW 15.0 mph 24.2 mph N/A   Overcast
6:36 AM 25.7 °F 14.0 °F 20.1 °F 79% 29.95 in 10.0 mi WSW 13.8 mph 26.5 mph N/A   Mostly Cloudy
7:16 AM 26.1 °F 14.0 °F 19.9 °F 78% 29.93 in 10.0 mi WSW 15.0 mph 25.3 mph N/A   Scattered Clouds
7:36 AM 26.1 °F 14.5 °F 20.3 °F 79% 29.93 in 10.0 mi WSW 13.8 mph 23.0 mph N/A   Mostly Cloudy
8:11 AM 26.1 °F 13.6 °F 20.3 °F 79% 29.93 in 10.0 mi West 16.1 mph 27.6 mph N/A   Mostly Cloudy
8:31 AM 25.5 °F 12.4 °F 19.9 °F 79% 29.93 in 10.0 mi West 17.3 mph 25.3 mph N/A   Overcast
8:51 AM 25.3 °F 13.1 °F 19.8 °F 79% 29.94 in 10.0 mi West 15.0 mph 25.3 mph N/A   Overcast
9:11 AM 25.0 °F 13.1 °F 19.8 °F 81% 29.94 in 10.0 mi WSW 13.8 mph 21.9 mph N/A   Overcast
9:32 AM 25.2 °F 12.9 °F 19.8 °F 80% 29.95 in 10.0 mi West 15.0 mph 23.0 mph N/A   Overcast
9:52 AM 24.8 °F 12.4 °F 19.4 °F 80% 29.95 in 10.0 mi West 15.0 mph 24.2 mph N/A   Overcast
10:12 AM 24.6 °F 13.8 °F 19.2 °F 80% 29.95 in 10.0 mi West 11.5 mph 25.3 mph N/A   Overcast
10:32 AM 24.6 °F 12.7 °F 19.2 °F 80% 29.96 in 10.0 mi WSW 13.8 mph 21.9 mph N/A   Overcast
10:52 AM 24.8 °F 16.1 °F 19.8 °F 81% 29.97 in 10.0 mi West 8.1 mph 17.3 mph N/A   Overcast
11:12 AM 24.8 °F 14.6 °F 19.8 °F 81% 29.97 in 10.0 mi West 10.4 mph 19.6 mph N/A   Overcast
11:52 AM 24.8 °F 13.4 °F 19.6 °F 81% 29.95 in 10.0 mi WSW 12.7 mph 19.6 mph N/A   Overcast
12:12 PM 25.2 °F 14.4 °F 19.9 °F 81% 29.95 in 10.0 mi WSW 11.5 mph 17.3 mph N/A   Overcast
12:33 PM 25.2 °F 14.4 °F 19.9 °F 81% 29.95 in 10.0 mi WSW 11.5 mph 17.3 mph N/A   Overcast
12:53 PM 25.5 °F 14.9 °F 20.5 °F 81% 29.94 in 10.0 mi WSW 11.5 mph 17.3 mph N/A   Overcast
1:13 PM 25.7 °F 17.1 °F 20.5 °F 81% 29.93 in 10.0 mi WSW 8.1 mph 17.3 mph N/A   Overcast
1:33 PM 26.2 °F 17.1 °F 21.0 °F 81% 29.93 in 10.0 mi WSW 9.2 mph - N/A   Overcast
1:53 PM 27.0 °F 16.1 °F 21.6 °F 80% 29.93 in 10.0 mi WSW 12.7 mph 17.3 mph N/A   Overcast
2:13 PM 27.3 °F 17.7 °F 21.9 °F 80% 29.93 in 10.0 mi WSW 10.4 mph 19.6 mph N/A   Overcast
2:33 PM 27.9 °F 17.8 °F 22.1 °F 79% 29.93 in 10.0 mi SW 11.5 mph 17.3 mph N/A   Overcast
2:53 PM 28.4 °F 18.5 °F 22.3 °F 78% 29.94 in 10.0 mi WSW 11.5 mph 17.3 mph N/A   Overcast
3:13 PM 28.9 °F 19.8 °F 22.8 °F 78% 29.94 in 10.0 mi WSW 10.4 mph 17.3 mph N/A   Overcast
3:34 PM 29.1 °F 18.4 °F 22.5 °F 76% 29.94 in 10.0 mi West 13.8 mph 20.7 mph N/A   Mostly Cloudy
3:54 PM 29.5 °F 19.3 °F 23.2 °F 77% 29.96 in 10.0 mi WSW 12.7 mph 18.4 mph N/A   Mostly Cloudy
4:14 PM 30.0 °F 21.1 °F 23.7 °F 77% 29.96 in 10.0 mi WSW 10.4 mph 17.3 mph N/A   Mostly Cloudy
4:34 PM 30.6 °F 21.8 °F 24.4 °F 78% 29.97 in 10.0 mi WSW 10.4 mph 17.3 mph N/A   Mostly Cloudy
4:54 PM 31.1 °F 22.4 °F 25.3 °F 79% 29.97 in 10.0 mi West 10.4 mph 17.3 mph N/A   Overcast
5:14 PM 31.5 °F 23.5 °F 25.3 °F 78% 29.98 in 10.0 mi West 9.2 mph - N/A   Mostly Cloudy
5:34 PM 31.8 °F 22.8 °F 25.2 °F 76% 29.99 in 10.0 mi WSW 11.5 mph 19.6 mph N/A   Scattered Clouds
5:54 PM 32.0 °F 23.6 °F 24.8 °F 75% 29.99 in 10.0 mi West 10.4 mph - N/A   Clear
6:14 PM 32.0 °F 23.6 °F 23.9 °F 72% 30.00 in 10.0 mi West 10.4 mph 23.0 mph N/A   Clear
6:34 PM 32.0 °F 23.0 °F 24.1 °F 73% 30.01 in 10.0 mi West 11.5 mph 17.3 mph N/A   Clear
6:55 PM 32.0 °F 24.8 °F 24.6 °F 74% 30.02 in 10.0 mi West 8.1 mph 17.3 mph N/A   Clear
7:15 PM 32.4 °F 25.3 °F 25.2 °F 75% 30.03 in 10.0 mi West 8.1 mph - N/A   Clear
7:35 PM 32.7 °F 25.0 °F 25.3 °F 74% 30.04 in 10.0 mi West 9.2 mph - N/A   Clear
7:55 PM 32.9 °F 23.7 °F 25.5 °F 74% 30.04 in 10.0 mi West 12.7 mph 17.3 mph N/A   Clear
8:15 PM 33.1 °F 23.9 °F 25.7 °F 74% 30.05 in 10.0 mi West 12.7 mph 16.1 mph N/A   Clear
8:35 PM 33.3 °F 25.1 °F 25.9 °F 74% 30.05 in 10.0 mi West 10.4 mph 20.7 mph N/A   Clear
8:55 PM 33.1 °F 24.4 °F 26.4 °F 77% 30.05 in 10.0 mi WNW 11.5 mph 17.3 mph N/A   Clear
9:15 PM 33.1 °F 24.4 °F 26.2 °F 76% 30.05 in 10.0 mi WNW 11.5 mph 19.6 mph N/A   Clear
9:35 PM 33.3 °F 24.1 °F 26.6 °F 77% 30.05 in 10.0 mi WNW 12.7 mph - N/A   Clear
9:56 PM 32.9 °F 23.7 °F 25.7 °F 75% 30.06 in 10.0 mi WNW 12.7 mph 23.0 mph N/A   Clear
10:16 PM 32.5 °F 24.2 °F 25.7 °F 76% 30.06 in 10.0 mi WNW 10.4 mph 18.4 mph N/A   Clear
10:36 PM 32.2 °F 23.2 °F 25.7 °F 77% 30.07 in 10.0 mi WNW 11.5 mph - N/A   Clear
10:56 PM 32.2 °F 23.8 °F 25.3 °F 76% 30.08 in 10.0 mi NW 10.4 mph - N/A   Clear
11:16 PM 32.0 °F 24.8 °F 24.8 °F 75% 30.09 in 10.0 mi NW 8.1 mph - N/A   Clear
11:31 PM 32.2 °F 25.8 °F 24.4 °F 73% 30.09 in 10.0 mi NNW 6.9 mph - N/A   Clear
11:51 PM 32.0 °F 27.5 °F 24.3 °F 73% 30.09 in 10.0 mi NW 4.6 mph - N/A   Clear